createdAt,value
2023-05-22T00:00:42.496Z,98587.16
2023-05-22T00:03:11.249Z,98585.84
2023-05-22T00:05:41.333Z,98589.25
2023-05-22T00:08:11.701Z,98590.31
2023-05-22T00:10:40.665Z,98587.91
2023-05-22T00:13:09.536Z,98588.84
2023-05-22T00:15:38.178Z,98592.19
2023-05-22T00:18:08.256Z,98591.06
2023-05-22T00:20:39.279Z,98583.47
2023-05-22T00:23:12.140Z,98580.19
2023-05-22T00:25:42.009Z,98579.69
2023-05-22T00:28:10.614Z,98581.03
2023-05-22T00:30:39.471Z,98584.44
2023-05-22T00:33:08.459Z,98575.75
2023-05-22T00:35:37.133Z,98569.66
2023-05-22T00:38:06.286Z,98572.81
2023-05-22T00:40:36.482Z,98574.66
2023-05-22T00:43:08.525Z,98565.69
2023-05-22T00:45:37.485Z,98573.84
2023-05-22T00:48:09.583Z,98577.81
2023-05-22T00:50:38.533Z,98576.75
2023-05-22T00:53:07.407Z,98577.19
2023-05-22T00:55:37.532Z,98580.38
2023-05-22T00:58:07.896Z,98586.44
2023-05-22T01:00:37.412Z,98578.47
2023-05-22T01:03:07.924Z,98582.56
2023-05-22T01:05:36.964Z,98584.69
2023-05-22T01:08:06.705Z,98576.00
2023-05-22T01:10:38.102Z,98590.13
2023-05-22T01:13:12.153Z,98589.63
2023-05-22T01:15:45.432Z,98591.22
2023-05-22T01:18:19.728Z,98592.00
2023-05-22T01:20:52.725Z,98594.38
2023-05-22T01:23:42.768Z,98592.59
2023-05-22T01:26:22.842Z,98601.91
2023-05-22T01:29:08.830Z,98591.66
2023-05-22T01:31:41.081Z,98595.06
2023-05-22T01:34:12.364Z,98597.69
2023-05-22T01:36:42.504Z,98599.06
2023-05-22T01:39:11.432Z,98598.22
2023-05-22T01:41:41.721Z,98601.00
2023-05-22T01:44:10.419Z,98599.94
2023-05-22T01:46:41.038Z,98604.66
2023-05-22T01:49:10.471Z,98600.63
2023-05-22T01:51:44.846Z,98608.47
2023-05-22T01:54:18.157Z,98611.59
2023-05-22T01:56:50.104Z,98611.53
2023-05-22T01:59:22.786Z,98619.00
2023-05-22T02:01:53.985Z,98609.56
2023-05-22T02:04:23.731Z,98611.63
2023-05-22T02:06:53.877Z,98622.63
2023-05-22T02:09:23.395Z,98617.41
2023-05-22T02:11:52.705Z,98618.91
2023-05-22T02:14:22.263Z,98615.44
2023-05-22T02:16:50.921Z,98609.91
2023-05-22T02:19:21.019Z,98612.22
2023-05-22T02:21:49.719Z,98614.38
2023-05-22T02:24:18.443Z,98614.41
2023-05-22T02:26:47.760Z,98607.81
2023-05-22T02:29:16.491Z,98608.38
2023-05-22T02:31:45.123Z,98610.19
2023-05-22T02:34:13.774Z,98616.53
2023-05-22T02:36:43.940Z,98610.75
2023-05-22T02:39:12.632Z,98609.97
2023-05-22T02:41:41.363Z,98602.50
2023-05-22T02:44:10.057Z,98605.63
2023-05-22T02:46:38.848Z,98603.84
2023-05-22T02:49:07.581Z,98612.28
2023-05-22T02:51:36.746Z,98601.69
2023-05-22T02:54:06.941Z,98607.75
2023-05-22T02:56:35.551Z,98606.34
2023-05-22T02:59:04.193Z,98610.28
2023-05-22T03:01:32.871Z,98614.38
2023-05-22T03:04:01.603Z,98614.25
2023-05-22T03:06:30.634Z,98618.53
2023-05-22T03:08:59.358Z,98613.69
2023-05-22T03:11:29.796Z,98616.91
2023-05-22T03:13:58.604Z,98615.56
2023-05-22T03:16:28.058Z,98616.53
2023-05-22T03:19:08.629Z,98617.91
2023-05-22T03:21:37.720Z,98613.00
2023-05-22T03:24:06.995Z,98612.19
2023-05-22T03:26:37.308Z,98611.09
2023-05-22T03:29:06.245Z,98628.59
2023-05-22T03:31:35.510Z,98632.53
2023-05-22T03:34:05.725Z,98640.41
2023-05-22T03:36:35.145Z,98648.53
2023-05-22T03:39:03.998Z,98655.56
2023-05-22T03:41:32.617Z,98658.09
2023-05-22T03:44:03.658Z,98654.03
2023-05-22T03:46:32.362Z,98645.19
2023-05-22T03:49:01.076Z,98649.78
2023-05-22T03:51:29.693Z,98644.13
2023-05-22T03:53:58.324Z,98648.19
2023-05-22T03:56:27.118Z,98637.97
2023-05-22T03:58:56.194Z,98641.78
2023-05-22T04:01:26.786Z,98647.81
2023-05-22T04:03:55.446Z,98642.03
2023-05-22T04:06:24.129Z,98640.19
2023-05-22T04:08:52.780Z,98650.78
2023-05-22T04:11:22.187Z,98649.25
2023-05-22T04:13:51.601Z,98648.16
2023-05-22T04:16:20.958Z,98656.56
2023-05-22T04:18:51.035Z,98659.78
2023-05-22T04:21:20.305Z,98654.28
2023-05-22T04:23:49.488Z,98656.66
2023-05-22T04:26:18.142Z,98650.81
2023-05-22T04:28:47.090Z,98654.50
2023-05-22T04:31:15.797Z,98656.09
2023-05-22T04:33:48.283Z,98655.22
2023-05-22T04:36:22.208Z,98662.34
2023-05-22T04:38:50.887Z,98666.00
2023-05-22T04:41:21.823Z,98657.38
2023-05-22T04:43:52.975Z,98655.91
2023-05-22T04:46:22.466Z,98658.66
2023-05-22T04:48:51.499Z,98665.91
2023-05-22T04:51:22.923Z,98661.97
2023-05-22T04:53:51.952Z,98672.25
2023-05-22T04:56:28.111Z,98662.59
2023-05-22T04:59:04.631Z,98656.84
2023-05-22T05:01:35.061Z,98665.59
2023-05-22T05:04:04.293Z,98665.38
2023-05-22T05:06:34.563Z,98672.41
2023-05-22T05:09:03.279Z,98667.75
2023-05-22T05:11:31.949Z,98670.78
2023-05-22T05:14:00.653Z,98670.81
2023-05-22T05:16:29.306Z,98667.00
2023-05-22T05:18:58.274Z,98674.22
2023-05-22T05:21:27.948Z,98672.13
2023-05-22T05:23:58.122Z,98665.06
2023-05-22T05:26:27.333Z,98664.13
2023-05-22T05:28:56.742Z,98667.69
2023-05-22T05:31:26.068Z,98660.56
2023-05-22T05:33:58.010Z,98657.81
2023-05-22T05:36:27.013Z,98665.03
2023-05-22T05:38:56.642Z,98664.13
2023-05-22T05:41:27.470Z,98662.13
2023-05-22T05:43:57.465Z,98659.19
2023-05-22T05:46:26.284Z,98669.69
2023-05-22T05:48:54.998Z,98665.84
2023-05-22T05:51:23.645Z,98661.13
2023-05-22T05:53:52.257Z,98661.44
2023-05-22T05:56:21.294Z,98674.06
2023-05-22T05:58:51.469Z,98672.50
2023-05-22T06:01:20.162Z,98678.03
2023-05-22T06:03:48.856Z,98670.94
2023-05-22T06:06:18.231Z,98667.28
2023-05-22T06:08:46.951Z,98678.84
2023-05-22T06:11:15.654Z,98678.56
2023-05-22T06:13:44.377Z,98678.56
2023-05-22T06:16:14.451Z,98679.41
2023-05-22T06:18:43.129Z,98676.78
2023-05-22T06:21:11.871Z,98682.91
2023-05-22T06:23:40.487Z,98685.34
2023-05-22T06:26:09.240Z,98681.13
2023-05-22T06:28:37.937Z,98675.88
2023-05-22T06:31:07.396Z,98675.91
2023-05-22T06:33:37.854Z,98673.03
2023-05-22T06:36:08.906Z,98676.53
2023-05-22T06:38:39.188Z,98684.22
2023-05-22T06:41:08.050Z,98675.22
2023-05-22T06:43:36.743Z,98677.84
2023-05-22T06:46:05.950Z,98674.91
2023-05-22T06:48:35.034Z,98674.88
2023-05-22T06:51:05.375Z,98677.41
2023-05-22T06:53:34.172Z,98668.28
2023-05-22T06:56:03.335Z,98672.13
2023-05-22T06:58:32.067Z,98674.69
2023-05-22T07:01:00.804Z,98675.81
2023-05-22T07:03:29.462Z,98668.31
2023-05-22T07:05:59.520Z,98671.28
2023-05-22T07:08:30.712Z,98677.72
2023-05-22T07:10:59.636Z,98669.78
2023-05-22T07:13:32.019Z,98680.31
2023-05-22T07:16:00.869Z,98681.22
2023-05-22T07:18:29.637Z,98672.88
2023-05-22T07:20:59.327Z,98677.72
2023-05-22T07:23:29.489Z,98676.13
2023-05-22T07:25:58.161Z,98678.81
2023-05-22T07:28:26.815Z,98672.63
2023-05-22T07:30:55.471Z,98677.19
2023-05-22T07:33:24.189Z,98674.97
2023-05-22T07:35:52.882Z,98675.63
2023-05-22T07:38:22.347Z,98676.63
2023-05-22T07:40:52.434Z,98673.47
2023-05-22T07:43:21.331Z,98671.22
2023-05-22T07:45:50.063Z,98669.22
2023-05-22T07:48:18.776Z,98671.09
2023-05-22T07:50:47.835Z,98663.38
2023-05-22T07:53:17.655Z,98662.44
2023-05-22T07:55:46.400Z,98664.09
2023-05-22T07:58:16.619Z,98663.44
2023-05-22T08:00:45.420Z,98661.38
2023-05-22T08:03:14.383Z,98661.09
2023-05-22T08:05:43.129Z,98655.22
2023-05-22T08:08:11.999Z,98662.72
2023-05-22T08:10:58.070Z,98658.75
2023-05-22T08:13:30.798Z,98656.06
2023-05-22T08:16:00.311Z,98669.47
2023-05-22T08:18:30.120Z,98660.28
2023-05-22T08:21:00.233Z,98655.84
2023-05-22T08:23:30.072Z,98657.53
2023-05-22T08:25:59.254Z,98658.47
2023-05-22T08:28:28.070Z,98656.16
2023-05-22T08:30:58.168Z,98649.78
2023-05-22T08:33:26.876Z,98648.19
2023-05-22T08:35:55.602Z,98652.56
2023-05-22T08:38:24.275Z,98654.09
2023-05-22T08:40:55.171Z,98653.16
2023-05-22T08:43:24.804Z,98644.88
2023-05-22T08:46:00.530Z,98648.66
2023-05-22T08:48:31.829Z,98640.81
2023-05-22T08:51:04.281Z,98639.69
2023-05-22T08:53:36.048Z,98646.53
2023-05-22T08:56:06.775Z,98648.97
2023-05-22T08:58:36.802Z,98644.59
2023-05-22T09:01:07.364Z,98650.38
2023-05-22T09:03:37.136Z,98647.94
2023-05-22T09:06:10.478Z,98646.47
2023-05-22T09:08:39.415Z,98639.88
2023-05-22T09:11:08.138Z,98650.06
2023-05-22T09:13:40.447Z,98643.53
2023-05-22T09:16:12.111Z,98638.09
2023-05-22T09:18:42.122Z,98639.59
2023-05-22T09:21:25.565Z,98636.91
2023-05-22T09:24:01.453Z,98636.63
2023-05-22T09:26:30.599Z,98635.81
2023-05-22T09:29:00.838Z,98634.38
2023-05-22T09:31:31.688Z,98637.06
2023-05-22T09:34:00.564Z,98640.81
2023-05-22T09:36:33.464Z,98632.47
2023-05-22T09:39:02.381Z,98630.47
2023-05-22T09:41:35.804Z,98633.56
2023-05-22T09:44:12.866Z,98632.19
2023-05-22T09:46:43.951Z,98626.31
2023-05-22T09:49:15.662Z,98630.38
2023-05-22T09:51:47.777Z,98633.31
2023-05-22T09:54:18.119Z,98626.56
2023-05-22T09:56:48.708Z,98633.25
2023-05-22T09:59:21.841Z,98626.06
2023-05-22T10:01:52.064Z,98618.38
2023-05-22T10:04:23.460Z,98624.69
2023-05-22T10:06:54.149Z,98634.25
2023-05-22T10:09:25.684Z,98629.69
2023-05-22T10:11:56.222Z,98635.16
2023-05-22T10:14:25.638Z,98624.13
2023-05-22T10:16:56.841Z,98619.72
2023-05-22T10:19:27.795Z,98622.78
2023-05-22T10:21:57.721Z,98613.84
2023-05-22T10:24:26.659Z,98608.59
2023-05-22T10:26:55.540Z,98606.88
2023-05-22T10:29:29.247Z,98605.69
2023-05-22T10:32:04.503Z,98599.59
2023-05-22T10:34:37.800Z,98610.91
2023-05-22T10:37:18.011Z,98610.19
2023-05-22T10:39:56.167Z,98606.44
2023-05-22T10:42:24.889Z,98599.78
2023-05-22T10:44:54.436Z,98593.47
2023-05-22T10:47:24.560Z,98590.53
2023-05-22T10:50:04.638Z,98584.16
2023-05-22T10:52:33.400Z,98584.03
2023-05-22T10:55:02.368Z,98581.22
2023-05-22T10:57:34.501Z,98584.47
2023-05-22T11:00:12.748Z,98586.38
2023-05-22T11:02:46.636Z,98572.06
2023-05-22T11:05:35.238Z,98573.16
2023-05-22T11:08:36.113Z,98576.16
2023-05-22T11:11:13.784Z,98565.47
2023-05-22T11:13:43.576Z,98572.19
2023-05-22T11:16:12.480Z,98570.72
2023-05-22T11:18:43.280Z,98563.75
2023-05-22T11:21:13.878Z,98563.19
2023-05-22T11:23:42.862Z,98564.22
2023-05-22T11:26:26.391Z,98559.25
2023-05-22T11:28:56.775Z,98558.34
2023-05-22T11:31:26.459Z,98549.78
2023-05-22T11:33:56.592Z,98551.44
2023-05-22T11:36:25.292Z,98545.63
2023-05-22T11:38:58.755Z,98544.00
2023-05-22T11:41:33.513Z,98536.97
2023-05-22T11:44:03.140Z,98532.41
2023-05-22T11:46:31.870Z,98531.91
2023-05-22T11:49:01.969Z,98530.47
2023-05-22T11:51:31.147Z,98516.81
2023-05-22T11:53:59.826Z,98527.41
2023-05-22T11:56:28.437Z,98514.16
2023-05-22T11:58:57.683Z,98518.59
2023-05-22T12:01:26.534Z,98525.78
2023-05-22T12:03:55.448Z,98512.09
2023-05-22T12:06:25.623Z,98513.38
2023-05-22T12:08:54.458Z,98517.19
2023-05-22T12:11:23.414Z,98520.53
2023-05-22T12:14:01.372Z,98508.59
2023-05-22T12:16:35.336Z,98509.66
2023-05-22T12:19:07.825Z,98507.63
2023-05-22T12:21:39.265Z,98504.00
2023-05-22T12:24:08.089Z,98498.53
2023-05-22T12:26:37.355Z,98500.28
2023-05-22T12:29:06.036Z,98506.25
2023-05-22T12:31:38.726Z,98505.25
2023-05-22T12:34:08.431Z,98505.97
2023-05-22T12:36:40.043Z,98509.19
2023-05-22T12:39:10.235Z,98508.09
2023-05-22T12:41:39.143Z,98494.03
2023-05-22T12:44:07.891Z,98508.28
2023-05-22T12:46:36.851Z,98506.25
2023-05-22T12:49:05.618Z,98513.19
2023-05-22T12:51:34.510Z,98520.91
2023-05-22T12:54:05.116Z,98518.84
2023-05-22T12:56:33.837Z,98512.47
2023-05-22T12:59:02.534Z,98503.97
2023-05-22T13:01:31.504Z,98503.63
2023-05-22T13:04:00.205Z,98494.66
2023-05-22T13:06:30.460Z,98494.53
2023-05-22T13:09:02.284Z,98485.59
2023-05-22T13:11:32.425Z,98491.63
2023-05-22T13:14:01.147Z,98486.19
2023-05-22T13:16:31.842Z,98484.53
2023-05-22T13:19:00.525Z,98483.16
2023-05-22T13:21:29.412Z,98470.75
2023-05-22T13:23:58.286Z,98477.31
2023-05-22T13:26:27.026Z,98479.03
2023-05-22T13:28:57.024Z,98471.31
2023-05-22T13:31:25.906Z,98473.97
2023-05-22T13:33:54.814Z,98477.31
2023-05-22T13:36:23.535Z,98472.88
2023-05-22T13:38:52.274Z,98483.72
2023-05-22T13:41:21.070Z,98480.28
2023-05-22T13:43:49.810Z,98487.91
2023-05-22T13:46:21.684Z,98495.28
2023-05-22T13:48:50.579Z,98505.13
2023-05-22T13:51:19.312Z,98509.16
2023-05-22T13:53:48.010Z,98506.44
2023-05-22T13:56:16.726Z,98495.03
2023-05-22T13:58:45.537Z,98493.84
2023-05-22T14:01:14.280Z,98487.34
2023-05-22T14:03:44.694Z,98486.66
2023-05-22T14:06:13.529Z,98499.47
2023-05-22T14:08:42.455Z,98494.44
2023-05-22T14:11:11.137Z,98490.59
2023-05-22T14:13:39.850Z,98494.47
2023-05-22T14:16:08.558Z,98488.53
2023-05-22T14:18:37.291Z,98489.50
2023-05-22T14:21:07.392Z,98480.53
2023-05-22T14:23:36.052Z,98484.38
2023-05-22T14:26:05.189Z,98482.56
2023-05-22T14:28:33.895Z,98479.75
2023-05-22T14:31:02.700Z,98481.78
2023-05-22T14:33:31.935Z,98475.28
2023-05-22T14:36:00.797Z,98480.06
2023-05-22T14:38:33.544Z,98482.94
2023-05-22T14:41:02.363Z,98483.44
2023-05-22T14:43:31.173Z,98490.22
2023-05-22T14:45:59.896Z,98490.88
2023-05-22T14:48:29.448Z,98488.88
2023-05-22T14:50:58.410Z,98494.72
2023-05-22T14:53:27.067Z,98496.94
2023-05-22T14:55:57.089Z,98488.66
2023-05-22T14:58:25.822Z,98503.72
2023-05-22T15:00:54.496Z,98505.63
2023-05-22T15:03:23.637Z,98496.06
2023-05-22T15:05:52.485Z,98498.44
2023-05-22T15:08:21.212Z,98505.34
2023-05-22T15:10:49.924Z,98512.31
2023-05-22T15:13:21.518Z,98525.38
2023-05-22T15:15:50.281Z,98529.72
2023-05-22T15:18:19.765Z,98532.31
2023-05-22T15:20:48.430Z,98535.94
2023-05-22T15:23:17.116Z,98538.13
2023-05-22T15:25:46.778Z,98536.72
2023-05-22T15:28:15.471Z,98539.53
2023-05-22T15:30:45.486Z,98541.56
2023-05-22T15:33:14.267Z,98536.41
2023-05-22T15:35:46.512Z,98530.69
2023-05-22T15:38:16.049Z,98523.78
2023-05-22T15:40:45.033Z,98524.41
2023-05-22T15:43:13.715Z,98518.53
2023-05-22T15:45:43.160Z,98515.38
2023-05-22T15:48:13.411Z,98516.28
2023-05-22T15:50:42.169Z,98518.63
2023-05-22T15:53:10.815Z,98532.91
2023-05-22T15:55:39.817Z,98548.31
2023-05-22T15:58:08.685Z,98543.34
2023-05-22T16:00:40.982Z,98549.50
2023-05-22T16:03:10.134Z,98549.84
2023-05-22T16:05:41.476Z,98544.06
2023-05-22T16:08:11.017Z,98540.78
2023-05-22T16:10:41.643Z,98540.94
2023-05-22T16:13:11.383Z,98544.84
2023-05-22T16:15:41.113Z,98535.94
2023-05-22T16:18:11.244Z,98543.78
2023-05-22T16:20:41.293Z,98540.34
2023-05-22T16:23:09.924Z,98538.75
2023-05-22T16:25:38.877Z,98523.50
2023-05-22T16:28:07.800Z,98534.00
2023-05-22T16:30:36.639Z,98525.97
2023-05-22T16:33:05.504Z,98533.97
2023-05-22T16:35:34.200Z,98537.34
2023-05-22T16:38:04.237Z,98547.38
2023-05-22T16:40:32.971Z,98558.13
2023-05-22T16:43:01.633Z,98560.50
2023-05-22T16:45:30.279Z,98560.69
2023-05-22T16:47:58.932Z,98571.84
2023-05-22T16:50:27.776Z,98581.63
2023-05-22T16:52:56.618Z,98580.38
2023-05-22T16:55:26.763Z,98575.38
2023-05-22T16:57:55.518Z,98569.63
2023-05-22T17:00:24.212Z,98558.47
2023-05-22T17:02:53.911Z,98559.47
2023-05-22T17:05:24.091Z,98549.59
2023-05-22T17:07:52.820Z,98548.34
2023-05-22T17:10:21.495Z,98543.19
2023-05-22T17:12:51.502Z,98545.22
2023-05-22T17:15:20.223Z,98553.34
2023-05-22T17:17:48.919Z,98555.22
2023-05-22T17:20:17.857Z,98556.13
2023-05-22T17:22:46.508Z,98552.69
2023-05-22T17:25:15.232Z,98555.97
2023-05-22T17:27:43.966Z,98549.06
2023-05-22T17:30:14.418Z,98548.91
2023-05-22T17:32:43.171Z,98564.72
2023-05-22T17:35:11.851Z,98569.28
2023-05-22T17:37:41.586Z,98559.50
2023-05-22T17:40:11.116Z,98564.38
2023-05-22T17:42:39.889Z,98562.63
2023-05-22T17:45:09.950Z,98548.00
2023-05-22T17:47:40.022Z,98539.81
2023-05-22T17:50:09.279Z,98555.34
2023-05-22T17:52:37.928Z,98560.69
2023-05-22T17:55:07.215Z,98564.00
2023-05-22T17:57:35.880Z,98568.06
2023-05-22T18:00:09.734Z,98567.59
2023-05-22T18:02:40.004Z,98580.84
2023-05-22T18:05:10.105Z,98573.91
2023-05-22T18:07:38.767Z,98574.03
2023-05-22T18:10:08.403Z,98564.91
2023-05-22T18:12:38.321Z,98583.88
2023-05-22T18:15:10.643Z,98582.59
2023-05-22T18:17:41.219Z,98577.66
2023-05-22T18:20:11.966Z,98586.38
2023-05-22T18:22:41.132Z,98583.84
2023-05-22T18:25:11.514Z,98589.28
2023-05-22T18:27:40.335Z,98594.16
2023-05-22T18:30:09.993Z,98597.50
2023-05-22T18:32:40.120Z,98602.81
2023-05-22T18:35:09.593Z,98597.78
2023-05-22T18:37:38.230Z,98605.97
2023-05-22T18:40:09.352Z,98607.47
2023-05-22T18:42:38.091Z,98613.03
2023-05-22T18:45:08.205Z,98614.31
2023-05-22T18:47:36.911Z,98615.69
2023-05-22T18:50:08.263Z,98609.00
2023-05-22T18:52:37.067Z,98614.72
2023-05-22T18:55:06.498Z,98624.56
2023-05-22T18:57:35.249Z,98624.19
2023-05-22T19:00:04.312Z,98624.28
2023-05-22T19:02:32.987Z,98623.78
2023-05-22T19:05:01.920Z,98626.63
2023-05-22T19:07:32.165Z,98626.25
2023-05-22T19:10:00.904Z,98622.41
2023-05-22T19:12:31.700Z,98623.47
2023-05-22T19:15:00.941Z,98621.41
2023-05-22T19:17:29.634Z,98625.50
2023-05-22T19:19:58.291Z,98634.59
2023-05-22T19:22:27.017Z,98636.72
2023-05-22T19:24:57.048Z,98640.56
2023-05-22T19:27:27.146Z,98634.31
2023-05-22T19:29:56.634Z,98648.56
2023-05-22T19:32:25.306Z,98648.16
2023-05-22T19:34:54.001Z,98651.16
2023-05-22T19:37:22.707Z,98657.97
2023-05-22T19:39:51.395Z,98661.22
2023-05-22T19:42:21.397Z,98658.91
2023-05-22T19:44:50.048Z,98662.72
2023-05-22T19:47:18.741Z,98672.44
2023-05-22T19:49:47.393Z,98663.53
2023-05-22T19:52:16.027Z,98672.66
2023-05-22T19:54:44.733Z,98663.66
2023-05-22T19:57:13.404Z,98668.75
2023-05-22T19:59:43.389Z,98671.56
2023-05-22T20:02:12.212Z,98671.38
2023-05-22T20:04:42.994Z,98676.19
2023-05-22T20:07:12.124Z,98669.81
2023-05-22T20:09:40.936Z,98668.22
2023-05-22T20:12:10.469Z,98658.19
2023-05-22T20:14:39.379Z,98664.13
2023-05-22T20:17:09.514Z,98663.13
2023-05-22T20:19:38.303Z,98661.81
2023-05-22T20:22:07.171Z,98666.47
2023-05-22T20:24:37.112Z,98659.34
2023-05-22T20:27:07.084Z,98654.38
2023-05-22T20:29:35.762Z,98670.31
2023-05-22T20:32:04.451Z,98667.13
2023-05-22T20:34:34.568Z,98674.63
2023-05-22T20:37:05.206Z,98681.84
2023-05-22T20:39:33.940Z,98688.28
2023-05-22T20:42:02.849Z,98693.63
2023-05-22T20:44:31.695Z,98698.75
2023-05-22T20:47:00.883Z,98705.41
2023-05-22T20:49:29.905Z,98707.56
2023-05-22T20:52:01.498Z,98700.41
2023-05-22T20:54:34.144Z,98707.16
2023-05-22T20:57:02.990Z,98708.00
2023-05-22T20:59:32.041Z,98709.06
2023-05-22T21:02:01.139Z,98712.91
2023-05-22T21:04:30.105Z,98715.84
2023-05-22T21:07:00.198Z,98712.38
2023-05-22T21:09:28.885Z,98714.53
2023-05-22T21:11:57.557Z,98716.16
2023-05-22T21:14:26.236Z,98713.25
2023-05-22T21:16:55.074Z,98713.25
2023-05-22T21:19:23.907Z,98718.63
2023-05-22T21:21:52.626Z,98724.94
2023-05-22T21:24:22.698Z,98722.84
2023-05-22T21:26:51.396Z,98715.97
2023-05-22T21:29:20.248Z,98719.97
2023-05-22T21:31:49.447Z,98720.53
2023-05-22T21:34:18.247Z,98723.72
2023-05-22T21:36:46.872Z,98720.56
2023-05-22T21:39:15.732Z,98724.31
2023-05-22T21:41:46.696Z,98719.81
2023-05-22T21:44:16.278Z,98729.63
2023-05-22T21:46:45.008Z,98730.19
2023-05-22T21:49:13.703Z,98729.38
2023-05-22T21:51:42.390Z,98731.25
2023-05-22T21:54:11.082Z,98732.84
2023-05-22T21:56:39.763Z,98737.13
2023-05-22T21:59:09.809Z,98731.03
2023-05-22T22:01:38.536Z,98733.44
2023-05-22T22:04:07.285Z,98736.09
2023-05-22T22:06:37.345Z,98748.31
2023-05-22T22:09:06.077Z,98748.81
2023-05-22T22:11:34.743Z,98759.19
2023-05-22T22:14:03.432Z,98750.44
2023-05-22T22:16:35.996Z,98746.50
2023-05-22T22:19:04.970Z,98745.72
2023-05-22T22:21:34.312Z,98747.84
2023-05-22T22:24:02.914Z,98756.34
2023-05-22T22:26:32.188Z,98750.78
2023-05-22T22:29:00.812Z,98755.56
2023-05-22T22:31:29.488Z,98764.03
2023-05-22T22:33:59.548Z,98761.88
2023-05-22T22:36:28.445Z,98753.97
2023-05-22T22:38:57.122Z,98760.59
2023-05-22T22:41:26.031Z,98750.56
2023-05-22T22:43:54.835Z,98764.88
2023-05-22T22:46:23.610Z,98764.88
2023-05-22T22:48:52.255Z,98760.66
2023-05-22T22:51:22.284Z,98769.09
2023-05-22T22:53:50.960Z,98762.22
2023-05-22T22:56:19.824Z,98767.50
2023-05-22T22:58:48.477Z,98768.31
2023-05-22T23:01:17.130Z,98771.78
2023-05-22T23:03:45.857Z,98771.00
2023-05-22T23:06:14.480Z,98781.28
2023-05-22T23:08:44.539Z,98782.34
2023-05-22T23:11:13.231Z,98773.06
2023-05-22T23:13:43.437Z,98786.03
2023-05-22T23:16:12.301Z,98783.13
2023-05-22T23:18:41.565Z,98776.53
2023-05-22T23:21:10.965Z,98777.59
2023-05-22T23:23:39.587Z,98774.94
2023-05-22T23:26:09.617Z,98785.00
2023-05-22T23:28:38.243Z,98772.28
2023-05-22T23:31:07.293Z,98778.91
2023-05-22T23:33:35.992Z,98782.06
2023-05-22T23:36:04.876Z,98778.63
2023-05-22T23:38:33.519Z,98780.75
2023-05-22T23:41:02.150Z,98780.75
2023-05-22T23:43:32.124Z,98783.13
2023-05-22T23:46:00.783Z,98786.84
2023-05-22T23:48:29.423Z,98784.72
2023-05-22T23:50:58.102Z,98788.41
2023-05-22T23:53:26.870Z,98796.38
2023-05-22T23:55:55.579Z,98793.19
2023-05-22T23:58:24.604Z,98793.72
